Time;durP1;ratioP1;P1;durP2;ratioP2;P2;SDS_P1;SDS_P2;PMS_P1;PMS_P2;Temp;Humidity;BMP_temperature;BMP_pressure;BME280_temperature;BME280_humidity;BME280_pressure;Samples;Min_cycle;Max_cycle;Signal;HPM_P1;HPM_P2
2022/10/26 04:00:46;;;;;;;3.20;1.67;;;4.70;96.30;;;;;;5819706;23;20486;-79
2022/10/26 04:03:12;;;;;;;3.20;2.50;;;4.70;96.30;;;;;;5039091;28;20795;-80
2022/10/26 04:05:37;;;;;;;3.10;2.10;;;4.70;96.30;;;;;;5038509;28;20411;-79
2022/10/26 04:08:03;;;;;;;1.93;1.43;;;4.80;96.30;;;;;;5018635;28;20187;-79
2022/10/26 04:10:29;;;;;;;3.77;1.97;;;4.80;96.30;;;;;;5020403;28;20261;-79
2022/10/26 04:12:56;;;;;;;8.63;1.83;;;4.80;96.30;;;;;;5037004;28;20212;-80
2022/10/26 04:15:22;;;;;;;2.73;1.47;;;4.80;96.30;;;;;;5015227;28;20438;-79
2022/10/26 04:17:47;;;;;;;4.10;1.53;;;4.80;96.30;;;;;;5013619;28;20407;-79
2022/10/26 04:59:11;;;;;;;5.87;2.57;;;;;;;;;;5580885;23;20481;-76
2022/10/26 05:01:55;;;;;;;5.20;3.00;;;;;;;;;;5001182;28;20463;-76
2022/10/26 05:04:21;;;;;;;12.33;2.47;;;;;;;;;;5000247;28;20454;-77
2022/10/26 05:06:47;;;;;;;11.63;2.97;;;;;;;;;;4997458;28;20416;-78
2022/10/26 05:09:13;;;;;;;5.40;2.17;;;4.80;96.30;;;;;;4997503;28;20416;-82
2022/10/26 05:11:39;;;;;;;5.33;2.10;;;;;;;;;;4999484;28;20204;-80
2022/10/26 05:14:04;;;;;;;7.60;2.43;;;4.80;96.30;;;;;;4999347;28;20206;-79
2022/10/26 05:16:30;;;;;;;3.10;2.30;;;;;;;;;;5020389;28;20212;-80
2022/10/26 05:22:18;;;;;;;14.70;6.40;;;4.80;96.30;;;;;;5021407;28;20271;-77
2022/10/26 05:25:03;;;;;;;14.47;8.73;;;4.70;96.30;;;;;;5001070;28;20420;-79
2022/10/26 05:27:32;;;;;;;10.40;5.77;;;4.70;96.30;;;;;;5017308;28;20219;-78
2022/10/26 05:29:58;;;;;;;7.93;4.97;;;;;;;;;;5001519;28;21095;-79
2022/10/26 05:32:25;;;;;;;10.70;4.17;;;4.70;96.30;;;;;;5020887;28;20590;-78
2022/10/26 05:34:51;;;;;;;10.60;5.40;;;;;;;;;;5005364;28;20523;-78
2022/10/26 05:37:16;;;;;;;5.77;4.50;;;4.70;96.30;;;;;;5003333;28;20829;-75
2022/10/26 05:39:42;;;;;;;5.03;3.60;;;4.70;96.30;;;;;;4997893;28;20579;-76
2022/10/26 05:42:08;;;;;;;4.23;2.30;;;4.80;96.30;;;;;;4995273;28;20219;-77
2022/10/26 05:44:33;;;;;;;11.30;2.50;;;4.80;96.30;;;;;;4996103;28;20207;-78
2022/10/26 05:46:59;;;;;;;3.67;1.73;;;;;;;;;;4996216;28;20184;-79
2022/10/26 05:49:25;;;;;;;4.90;2.13;;;;;;;;;;5019695;28;20641;-81
2022/10/26 05:51:50;;;;;;;3.93;2.13;;;4.90;96.30;;;;;;4992015;28;20205;-83
2022/10/26 05:54:16;;;;;;;3.30;2.00;;;4.90;96.30;;;;;;4982581;28;20181;-78
2022/10/26 05:56:41;;;;;;;7.80;1.77;;;4.90;96.30;;;;;;5011999;28;20191;-78
2022/10/26 05:59:13;;;;;;;2.57;2.07;;;5.00;96.30;;;;;;4993691;28;20611;-78
2022/10/26 06:01:51;;;;;;;4.10;3.00;;;5.20;96.30;;;;;;4994654;28;20265;-78
2022/10/26 06:04:22;;;;;;;6.07;2.63;;;5.40;96.30;;;;;;4982394;28;20430;-77
2022/10/26 06:06:53;;;;;;;2.50;1.90;;;5.40;96.30;;;;;;4992773;28;20794;-79
2022/10/26 06:09:20;;;;;;;2.27;1.70;;;5.40;96.30;;;;;;5010495;28;20403;-76
2022/10/26 06:11:46;;;;;;;4.50;2.10;;;5.40;96.30;;;;;;5020165;28;20756;-78
2022/10/26 06:14:11;;;;;;;5.17;1.93;;;5.50;96.30;;;;;;4994677;28;20426;-79
2022/10/26 06:17:00;;;;;;;3.30;2.67;;;5.50;96.30;;;;;;5003740;28;20427;-79
2022/10/26 06:19:28;;;;;;;3.27;2.00;;;5.50;96.30;;;;;;5009706;28;20228;-79
2022/10/26 06:22:27;;;;;;;3.90;2.70;;;5.60;96.30;;;;;;5015838;28;20468;-79
2022/10/26 06:25:10;;;;;;;5.20;3.80;;;5.70;96.30;;;;;;4991557;28;20416;-77
2022/10/26 06:27:35;;;;;;;9.20;2.27;;;;;;;;;;4997575;28;20428;-78
2022/10/26 06:30:05;;;;;;;4.30;2.27;;;6.10;96.30;;;;;;5009760;28;20915;-75
2022/10/26 06:32:32;;;;;;;3.60;2.60;;;6.30;96.30;;;;;;5006748;28;20447;-78
2022/10/26 06:35:05;;;;;;;8.63;2.70;;;6.40;96.30;;;;;;4996401;28;20435;-78
2022/10/26 06:37:32;;;;;;;11.53;3.20;;;6.40;96.30;;;;;;5023927;28;20412;-79
2022/10/26 06:39:59;;;;;;;4.80;2.63;;;6.50;96.30;;;;;;4999198;28;20422;-78
2022/10/26 06:42:24;;;;;;;7.90;5.30;;;6.50;96.30;;;;;;4993825;28;20466;-78
2022/10/26 06:44:50;;;;;;;10.47;5.30;;;6.60;96.30;;;;;;4998894;28;20519;-79
2022/10/26 06:47:34;;;;;;;9.80;4.90;;;6.60;96.30;;;;;;4995127;28;20554;-78
2022/10/26 06:50:11;;;;;;;3.93;3.10;;;6.60;96.30;;;;;;5025852;28;20231;-78
2022/10/26 06:52:42;;;;;;;5.13;3.13;;;6.60;96.30;;;;;;5023178;28;20466;-78
2022/10/26 06:55:15;;;;;;;6.43;2.97;;;6.60;96.30;;;;;;5026453;28;21157;-79
2022/10/26 06:57:42;;;;;;;4.43;3.10;;;6.70;96.30;;;;;;5014451;28;21114;-79
2022/10/26 07:00:23;;;;;;;5.27;3.20;;;6.90;96.30;;;;;;5006920;28;20454;-78
2022/10/26 07:02:50;;;;;;;7.23;3.47;;;7.10;96.30;;;;;;5030222;28;20458;-78
2022/10/26 07:05:16;;;;;;;12.87;3.40;;;;;;;;;;5002717;28;20955;-78
2022/10/26 07:07:44;;;;;;;5.10;2.83;;;7.30;96.30;;;;;;5015142;28;20447;-78
2022/10/26 07:10:11;;;;;;;7.80;3.80;;;7.50;96.30;;;;;;5014167;28;20415;-78
2022/10/26 07:12:37;;;;;;;6.03;4.13;;;7.60;96.30;;;;;;5011056;28;20460;-78
2022/10/26 07:15:03;;;;;;;6.80;4.00;;;7.70;96.30;;;;;;4996578;28;20442;-78
2022/10/26 07:17:29;;;;;;;9.43;3.50;;;7.80;96.30;;;;;;5018846;28;20184;-78
2022/10/26 07:19:55;;;;;;;5.80;2.93;;;7.90;96.30;;;;;;5007881;28;20427;-78
2022/10/26 07:22:20;;;;;;;4.00;3.00;;;8.00;96.30;;;;;;5023610;28;20451;-78
2022/10/26 07:24:50;;;;;;;7.00;3.33;;;8.10;96.30;;;;;;5000294;28;20258;-78
2022/10/26 07:27:16;;;;;;;4.63;2.57;;;8.30;96.30;;;;;;5018285;28;20169;-77
2022/10/26 07:29:41;;;;;;;6.33;2.80;;;8.50;96.30;;;;;;4999907;28;20416;-78
2022/10/26 07:32:07;;;;;;;3.90;2.63;;;8.70;96.30;;;;;;5018899;28;20443;-78
2022/10/26 07:34:33;;;;;;;6.93;3.20;;;8.90;96.30;;;;;;5011486;28;20238;-77
2022/10/26 07:36:59;;;;;;;5.67;3.57;;;9.10;96.30;;;;;;5023752;28;20237;-77
2022/10/26 07:39:25;;;;;;;7.07;3.40;;;9.30;96.30;;;;;;5019823;28;20565;-77
2022/10/26 07:41:51;;;;;;;4.93;2.87;;;;;;;;;;5015656;28;20473;-77
2022/10/26 07:44:17;;;;;;;2.60;2.10;;;;;;;;;;4992328;28;20651;-78
2022/10/26 07:46:43;;;;;;;11.50;3.53;;;;;;;;;;5021451;28;20410;-78
2022/10/26 07:49:09;;;;;;;10.43;3.47;;;9.70;96.30;;;;;;4995530;28;20484;-78
2022/10/26 07:51:35;;;;;;;5.67;3.30;;;9.70;96.30;;;;;;5022655;28;20451;-78
2022/10/26 07:54:01;;;;;;;14.20;3.03;;;9.90;96.30;;;;;;5029858;28;20696;-79
2022/10/26 07:56:27;;;;;;;3.83;2.00;;;9.90;96.30;;;;;;5022234;28;20176;-79
2022/10/26 07:58:53;;;;;;;7.23;3.00;;;10.10;96.30;;;;;;5019419;28;20181;-78
2022/10/26 08:01:19;;;;;;;4.27;3.60;;;;;;;;;;5010173;28;20440;-78
2022/10/26 08:03:45;;;;;;;4.13;2.40;;;10.50;96.30;;;;;;4993114;28;20512;-77
2022/10/26 08:06:11;;;;;;;2.53;1.80;;;10.70;96.30;;;;;;5015774;28;20416;-78
2022/10/26 08:08:36;;;;;;;3.80;1.93;;;10.90;96.30;;;;;;4988433;28;20250;-78
2022/10/26 08:11:02;;;;;;;5.40;2.20;;;11.10;96.30;;;;;;5019038;28;20212;-77
2022/10/26 08:13:28;;;;;;;3.33;1.83;;;11.40;96.30;;;;;;5009229;28;20192;-75
2022/10/26 08:15:58;;;;;;;4.60;2.10;;;11.60;96.30;;;;;;5016775;28;20416;-75
2022/10/26 08:18:24;;;;;;;6.40;1.87;;;12.00;96.30;;;;;;5018000;28;20188;-78
2022/10/26 08:20:50;;;;;;;2.97;1.67;;;;;;;;;;5014552;28;20450;-76
2022/10/26 08:23:15;;;;;;;4.60;2.17;;;12.60;96.30;;;;;;4998438;28;20204;-80
2022/10/26 08:25:41;;;;;;;3.93;1.97;;;12.80;96.30;;;;;;5012691;28;20801;-75
2022/10/26 08:28:07;;;;;;;2.17;1.77;;;;;;;;;;5020483;28;20183;-75
2022/10/26 08:30:33;;;;;;;3.57;1.70;;;13.50;96.30;;;;;;5017382;28;20212;-75
2022/10/26 08:33:04;;;;;;;2.70;1.60;;;13.80;96.30;;;;;;5013059;28;20189;-75
2022/10/26 08:35:31;;;;;;;4.20;1.70;;;14.00;96.30;;;;;;4995231;28;20478;-74
2022/10/26 08:37:56;;;;;;;2.80;1.77;;;14.20;96.30;;;;;;5022334;28;20424;-78
2022/10/26 08:40:29;;;;;;;2.83;1.70;;;14.20;96.30;;;;;;5018905;28;20934;-74
2022/10/26 08:43:06;;;;;;;3.40;1.70;;;14.60;96.30;;;;;;5021395;28;20455;-74
2022/10/26 08:45:39;;;;;;;3.50;1.90;;;14.70;96.30;;;;;;5012139;28;20485;-74
2022/10/26 08:48:14;;;;;;;4.70;1.77;;;14.90;96.30;;;;;;5014419;28;21102;-75
2022/10/26 08:50:55;;;;;;;5.67;2.27;;;15.10;96.30;;;;;;5017913;28;20455;-74
2022/10/26 08:53:22;;;;;;;1.70;1.10;;;;;;;;;;5019135;28;20501;-77
2022/10/26 08:55:55;;;;;;;3.63;1.60;;;15.20;96.30;;;;;;5017069;28;20466;-74
2022/10/26 08:58:27;;;;;;;3.80;1.40;;;15.30;96.30;;;;;;5017579;28;20415;-74
2022/10/26 09:00:52;;;;;;;4.30;2.00;;;15.40;96.30;;;;;;5021032;28;20547;-74
2022/10/26 09:03:18;;;;;;;5.13;1.83;;;15.50;96.30;;;;;;5017861;28;20548;-75
2022/10/26 09:05:54;;;;;;;2.73;1.27;;;15.80;96.30;;;;;;5017018;28;20255;-75
2022/10/26 09:08:26;;;;;;;3.13;1.27;;;15.80;96.30;;;;;;5011955;28;20646;-77
2022/10/26 09:11:30;;;;;;;2.17;0.87;;;16.00;96.30;;;;;;5022560;28;20435;-74
2022/10/26 09:14:15;;;;;;;2.80;1.03;;;16.20;96.30;;;;;;5014141;28;20529;-75
2022/10/26 09:17:07;;;;;;;2.00;1.00;;;16.30;96.30;;;;;;5011415;28;20978;-76
2022/10/26 09:19:57;;;;;;;3.37;0.90;;;16.30;96.30;;;;;;5017655;28;20813;-74
2022/10/26 09:22:26;;;;;;;1.53;0.80;;;16.40;96.30;;;;;;5013099;28;20478;-73
2022/10/26 09:24:55;;;;;;;1.93;0.70;;;16.00;96.30;;;;;;5023430;28;20821;-73
2022/10/26 09:27:27;;;;;;;2.17;0.83;;;16.20;96.30;;;;;;5016051;28;20430;-77
2022/10/26 09:29:55;;;;;;;2.23;0.90;;;16.30;96.30;;;;;;5015720;28;20967;-74
2022/10/26 09:32:33;;;;;;;2.13;0.93;;;16.30;96.30;;;;;;5017441;28;21045;-77
2022/10/26 09:35:04;;;;;;;2.90;0.70;;;16.50;96.30;;;;;;5018585;28;20502;-75
2022/10/26 09:37:41;;;;;;;1.67;0.90;;;16.60;96.30;;;;;;5008220;28;20439;-75
2022/10/26 09:40:14;;;;;;;4.20;0.80;;;16.70;96.30;;;;;;5005996;28;20427;-74
2022/10/26 09:42:48;;;;;;;1.50;0.80;;;17.00;96.30;;;;;;5020800;28;20957;-74
2022/10/26 09:45:25;;;;;;;1.30;0.80;;;17.00;96.30;;;;;;5019209;28;20808;-74
2022/10/26 09:47:54;;;;;;;2.70;0.90;;;17.40;96.30;;;;;;5017521;28;20538;-76
2022/10/26 09:50:37;;;;;;;1.43;0.90;;;17.50;96.30;;;;;;5020403;28;20426;-74
2022/10/26 09:53:03;;;;;;;1.57;0.80;;;;;;;;;;5008248;28;20448;-76
2022/10/26 09:55:31;;;;;;;1.83;0.83;;;17.60;96.30;;;;;;5021119;28;21077;-74
2022/10/26 09:58:01;;;;;;;2.67;0.90;;;17.60;96.30;;;;;;5018279;28;20181;-74
2022/10/26 10:00:27;;;;;;;1.27;0.77;;;17.60;96.30;;;;;;5026562;28;20457;-74
2022/10/26 10:02:54;;;;;;;2.13;0.90;;;18.20;96.30;;;;;;5015916;28;20458;-74
2022/10/26 10:05:27;;;;;;;3.43;1.13;;;18.60;96.30;;;;;;5024323;28;20415;-75
2022/10/26 10:08:10;;;;;;;1.60;0.80;;;18.90;96.30;;;;;;5004499;28;20435;-74
2022/10/26 10:10:37;;;;;;;3.07;1.13;;;18.60;96.30;;;;;;5021765;28;20521;-76
2022/10/26 10:13:15;;;;;;;2.00;1.10;;;18.10;96.30;;;;;;5018331;28;21319;-74
2022/10/26 10:15:52;;;;;;;4.77;1.63;;;18.30;96.30;;;;;;5018495;28;20407;-75
2022/10/26 10:18:22;;;;;;;3.20;1.20;;;18.40;96.30;;;;;;5017271;28;20429;-76
2022/10/26 10:20:56;;;;;;;2.20;0.90;;;18.20;96.30;;;;;;5017538;28;20434;-75
2022/10/26 10:23:26;;;;;;;4.57;1.10;;;17.80;96.30;;;;;;5015742;28;20935;-75
2022/10/26 10:26:12;;;;;;;1.77;1.10;;;17.50;96.30;;;;;;5013352;28;20416;-76
2022/10/26 10:28:41;;;;;;;2.53;1.10;;;17.10;96.30;;;;;;5018932;28;20455;-76
2022/10/26 11:09:08;;;;;;;7.33;1.10;;;16.60;96.30;;;;;;3657128;23;20872;-75
2022/10/26 11:11:43;;;;;;;2.80;1.00;;;16.60;96.30;;;;;;5016248;28;20463;-74
2022/10/26 11:14:22;;;;;;;1.90;0.90;;;16.60;96.30;;;;;;5029778;28;20920;-75
2022/10/26 11:17:04;;;;;;;1.37;0.87;;;16.40;96.30;;;;;;5021129;28;20422;-74
2022/10/26 11:19:34;;;;;;;3.90;1.13;;;16.50;96.30;;;;;;5028142;28;20779;-74
2022/10/26 11:22:03;;;;;;;2.03;0.93;;;16.60;96.30;;;;;;5022415;28;20819;-74
2022/10/26 11:24:33;;;;;;;8.10;1.10;;;16.70;96.30;;;;;;5021072;28;20501;-74
2022/10/26 11:27:14;;;;;;;4.57;1.00;;;16.80;96.30;;;;;;5021399;28;20430;-77
2022/10/26 11:29:47;;;;;;;2.57;0.80;;;16.80;96.30;;;;;;5029382;28;20406;-74
2022/10/26 11:32:20;;;;;;;1.77;0.97;;;17.00;96.30;;;;;;5014397;28;20616;-77
2022/10/26 11:35:10;;;;;;;5.50;0.93;;;17.20;96.30;;;;;;5022466;28;20491;-74
2022/10/26 11:37:51;;;;;;;1.70;0.90;;;17.40;96.30;;;;;;5018448;28;20753;-73
2022/10/26 11:40:35;;;;;;;1.77;0.93;;;17.70;96.30;;;;;;5019693;28;20416;-74
2022/10/26 11:43:14;;;;;;;1.20;0.90;;;17.80;96.30;;;;;;5010119;28;20454;-74
2022/10/26 11:45:45;;;;;;;2.90;1.00;;;17.90;96.30;;;;;;5019341;28;20759;-76
2022/10/26 11:48:33;;;;;;;4.43;0.93;;;17.60;96.30;;;;;;5018553;28;20427;-73
2022/10/26 11:50:59;;;;;;;2.20;0.80;;;17.60;96.30;;;;;;5022189;28;20454;-73
2022/10/26 11:53:38;;;;;;;2.30;1.10;;;17.70;96.30;;;;;;5018771;28;20488;-74
2022/10/26 11:56:12;;;;;;;3.10;0.90;;;17.90;96.30;;;;;;5009183;28;20439;-74
2022/10/26 11:58:39;;;;;;;3.33;1.07;;;17.90;96.30;;;;;;5019082;28;20459;-74
2022/10/26 12:01:11;;;;;;;3.00;0.87;;;17.90;96.30;;;;;;5025812;28;20450;-74
2022/10/26 12:03:44;;;;;;;1.60;0.70;;;18.00;96.30;;;;;;5013567;28;20521;-75
2022/10/26 12:06:11;;;;;;;2.07;1.00;;;18.10;96.30;;;;;;5032367;28;20461;-73
2022/10/26 12:08:41;;;;;;;5.53;0.93;;;18.20;96.30;;;;;;5016617;28;20416;-74
2022/10/26 12:11:23;;;;;;;3.60;0.90;;;18.30;96.30;;;;;;5017506;28;20458;-74
2022/10/26 12:14:17;;;;;;;1.47;0.93;;;18.40;96.30;;;;;;5016993;28;20422;-75
2022/10/26 12:17:09;;;;;;;3.27;0.83;;;18.50;96.30;;;;;;5005872;28;20510;-79
2022/10/26 12:20:03;;;;;;;2.17;0.90;;;18.60;96.30;;;;;;5021251;28;20513;-76
2022/10/26 12:22:35;;;;;;;2.13;0.80;;;18.50;96.30;;;;;;5011627;28;20538;-74
2022/10/26 12:25:27;;;;;;;1.73;0.90;;;18.70;96.30;;;;;;5025032;28;20498;-75
2022/10/26 12:27:54;;;;;;;1.20;0.80;;;18.30;96.30;;;;;;5010451;28;20514;-76
2022/10/26 12:30:20;;;;;;;2.63;0.87;;;;;;;;;;5022142;28;20430;-73
2022/10/26 12:32:47;;;;;;;6.20;0.70;;;18.30;96.30;;;;;;5021134;28;20411;-74
2022/10/26 12:35:31;;;;;;;1.63;0.93;;;18.20;96.30;;;;;;5023112;28;20415;-77
2022/10/26 12:37:57;;;;;;;2.50;0.80;;;18.20;96.30;;;;;;5013539;28;20412;-73
2022/10/26 12:40:37;;;;;;;1.70;0.87;;;18.20;96.30;;;;;;5019021;28;20426;-73
2022/10/26 12:43:14;;;;;;;2.67;1.00;;;18.20;96.30;;;;;;5019762;28;20464;-73
2022/10/26 12:46:23;;;;;;;1.63;0.80;;;18.10;96.30;;;;;;5016994;28;20415;-74
2022/10/26 12:48:50;;;;;;;1.70;0.90;;;18.10;96.30;;;;;;4989206;28;20967;-74
2022/10/26 12:51:20;;;;;;;7.50;0.70;;;18.00;96.30;;;;;;5017926;28;20496;-77
2022/10/26 12:54:16;;;;;;;1.30;0.90;;;17.80;96.30;;;;;;5020527;28;20463;-78
2022/10/26 12:57:16;;;;;;;6.50;0.90;;;17.70;96.30;;;;;;5021000;28;20510;-74
2022/10/26 12:59:51;;;;;;;5.10;1.00;;;17.70;96.30;;;;;;5011371;28;20416;-73
2022/10/26 13:02:42;;;;;;;5.03;0.73;;;17.70;96.30;;;;;;5008165;28;20985;-73
2022/10/26 13:05:45;;;;;;;1.87;0.80;;;17.70;96.30;;;;;;5019555;28;21160;-73
2022/10/26 13:08:12;;;;;;;5.47;0.93;;;17.60;96.30;;;;;;5000782;28;20418;-74
2022/10/26 13:10:58;;;;;;;1.03;0.80;;;17.60;96.30;;;;;;5014099;28;20535;-74
2022/10/26 13:13:24;;;;;;;2.03;0.93;;;17.50;96.30;;;;;;5019368;28;20427;-74
2022/10/26 13:15:56;;;;;;;3.87;0.60;;;17.50;96.30;;;;;;5011912;28;20403;-74
2022/10/26 13:18:22;;;;;;;3.13;0.80;;;17.40;96.30;;;;;;5023197;28;20181;-74
2022/10/26 13:21:03;;;;;;;2.60;0.90;;;17.30;96.30;;;;;;5027214;28;20484;-74
2022/10/26 13:23:31;;;;;;;1.57;0.87;;;17.10;96.30;;;;;;4995951;28;20459;-73
2022/10/26 13:26:04;;;;;;;4.13;1.17;;;17.10;96.30;;;;;;5012097;28;20431;-74
2022/10/26 13:28:32;;;;;;;1.40;0.80;;;17.00;96.30;;;;;;5011021;28;20411;-74
2022/10/26 13:30:57;;;;;;;2.07;1.00;;;16.90;96.30;;;;;;5014543;28;20432;-74
2022/10/26 13:33:35;;;;;;;1.63;1.00;;;16.70;96.30;;;;;;5016007;28;20788;-77
2022/10/26 13:36:05;;;;;;;1.53;0.90;;;16.70;96.30;;;;;;5023365;28;20662;-74
2022/10/26 13:38:33;;;;;;;11.67;1.10;;;16.60;96.30;;;;;;5014842;28;20424;-74
2022/10/26 13:41:21;;;;;;;2.70;0.90;;;16.60;96.30;;;;;;5015484;28;20436;-77
2022/10/26 13:43:48;;;;;;;7.33;0.97;;;16.50;96.30;;;;;;5010762;28;20460;-76
2022/10/26 13:46:26;;;;;;;1.73;0.80;;;16.50;96.30;;;;;;5015857;28;20411;-76
2022/10/26 13:49:07;;;;;;;7.13;0.90;;;16.40;96.30;;;;;;5016008;28;20438;-75
2022/10/26 13:51:43;;;;;;;2.70;0.80;;;16.30;96.30;;;;;;5021686;28;20434;-74
2022/10/26 13:54:41;;;;;;;2.40;0.87;;;16.30;96.30;;;;;;5022894;28;20415;-74
2022/10/26 13:57:19;;;;;;;2.70;0.70;;;16.30;96.30;;;;;;4996035;28;20427;-75
2022/10/26 13:59:45;;;;;;;1.40;0.77;;;16.30;96.30;;;;;;5013552;28;20416;-75
2022/10/26 14:02:19;;;;;;;8.33;0.80;;;16.40;96.30;;;;;;5015237;28;20513;-74
2022/10/26 14:04:46;;;;;;;1.00;0.70;;;16.40;96.30;;;;;;5015340;28;20408;-74
2022/10/26 14:07:19;;;;;;;2.10;0.90;;;16.40;96.30;;;;;;4997365;28;20416;-73
2022/10/26 14:09:50;;;;;;;1.77;0.73;;;16.40;96.30;;;;;;5015223;28;20931;-76
2022/10/26 14:12:16;;;;;;;1.30;0.80;;;16.50;96.30;;;;;;5015420;28;20431;-75
2022/10/26 14:14:42;;;;;;;1.30;0.90;;;16.50;96.30;;;;;;5013344;28;20435;-75
2022/10/26 14:17:18;;;;;;;1.83;0.93;;;16.60;96.30;;;;;;5013947;28;20412;-74
2022/10/26 14:19:44;;;;;;;3.70;1.00;;;16.60;96.30;;;;;;5015009;28;20795;-74
2022/10/26 14:22:18;;;;;;;2.53;1.73;;;16.60;96.30;;;;;;5015091;28;20462;-74
2022/10/26 14:24:50;;;;;;;2.00;1.10;;;16.70;96.30;;;;;;5014829;28;20168;-74
2022/10/26 14:27:24;;;;;;;2.13;1.37;;;16.70;96.30;;;;;;5014559;28;20411;-75
2022/10/26 14:29:52;;;;;;;3.53;1.27;;;16.70;96.30;;;;;;5015012;28;20910;-75
2022/10/26 14:32:29;;;;;;;1.50;1.00;;;16.70;96.30;;;;;;5015032;28;20904;-75
2022/10/26 14:34:56;;;;;;;3.50;1.07;;;16.70;96.30;;;;;;5015052;28;20879;-75
2022/10/26 14:37:41;;;;;;;1.57;0.93;;;16.70;96.30;;;;;;4996763;28;20422;-75
2022/10/26 14:40:18;;;;;;;2.03;1.10;;;16.70;96.30;;;;;;5014198;28;20420;-75
2022/10/26 14:42:51;;;;;;;1.30;1.00;;;16.60;96.30;;;;;;5014942;28;20451;-75
2022/10/26 14:45:24;;;;;;;7.00;1.40;;;16.50;96.30;;;;;;5014985;28;20404;-75
2022/10/26 14:47:50;;;;;;;2.37;1.20;;;16.50;96.30;;;;;;5014348;28;20894;-74
2022/10/26 14:50:22;;;;;;;2.00;1.50;;;16.40;96.30;;;;;;5014716;28;20406;-75
2022/10/26 14:52:55;;;;;;;3.00;1.13;;;16.30;96.30;;;;;;5014754;28;20412;-75
2022/10/26 14:55:20;;;;;;;1.77;1.20;;;16.30;96.30;;;;;;5014680;28;20418;-75
2022/10/26 14:57:49;;;;;;;5.80;1.50;;;16.20;96.30;;;;;;4996448;28;20420;-75
2022/10/26 15:00:23;;;;;;;1.10;0.90;;;16.20;96.30;;;;;;5014482;28;20224;-75
2022/10/26 15:02:54;;;;;;;2.33;1.30;;;16.20;96.30;;;;;;4996662;28;20459;-75
2022/10/26 15:05:20;;;;;;;1.80;1.10;;;;;;;;;;5014514;28;20451;-75
2022/10/26 15:07:46;;;;;;;3.17;1.00;;;16.10;96.30;;;;;;5013859;28;20400;-75
2022/10/26 15:10:36;;;;;;;1.70;1.07;;;16.00;96.30;;;;;;4996501;28;20999;-75
2022/10/26 15:13:30;;;;;;;2.53;1.37;;;15.90;96.30;;;;;;5014356;28;20177;-75
2022/10/26 15:16:15;;;;;;;2.20;1.00;;;15.80;96.30;;;;;;5014460;28;20404;-75
2022/10/26 15:18:41;;;;;;;3.10;1.53;;;15.80;96.30;;;;;;4996102;28;20404;-75
2022/10/26 15:21:26;;;;;;;3.37;1.40;;;15.70;96.30;;;;;;5013981;28;20824;-75
2022/10/26 15:23:54;;;;;;;5.33;1.93;;;15.70;96.30;;;;;;5014121;28;20558;-75
2022/10/26 15:26:20;;;;;;;5.30;1.17;;;15.70;96.30;;;;;;5014004;28;20403;-75
2022/10/26 15:28:48;;;;;;;2.60;1.30;;;15.70;96.30;;;;;;5013347;28;20415;-75
2022/10/26 15:31:13;;;;;;;3.13;1.17;;;15.60;96.30;;;;;;5013826;28;20287;-75
2022/10/26 15:33:59;;;;;;;3.23;1.33;;;15.50;96.30;;;;;;5013850;28;20503;-75
2022/10/26 15:36:29;;;;;;;3.87;1.57;;;15.40;96.30;;;;;;5013292;28;20181;-75
2022/10/26 15:38:57;;;;;;;2.77;1.50;;;15.30;96.30;;;;;;5013138;28;20428;-75
2022/10/26 15:41:24;;;;;;;3.00;1.47;;;15.30;96.30;;;;;;5013788;28;20435;-75
2022/10/26 15:43:52;;;;;;;1.60;1.10;;;15.20;96.30;;;;;;5013837;28;20464;-75
2022/10/26 15:46:18;;;;;;;2.80;1.30;;;15.20;96.30;;;;;;5013600;28;20412;-75
2022/10/26 15:48:52;;;;;;;3.60;1.67;;;15.10;96.30;;;;;;5013297;28;20439;-75
2022/10/26 15:51:18;;;;;;;2.63;1.60;;;15.10;96.30;;;;;;5012496;28;20424;-75
2022/10/26 15:53:43;;;;;;;2.50;1.30;;;15.00;96.30;;;;;;5013524;28;20462;-75
2022/10/26 15:56:15;;;;;;;2.27;1.23;;;15.00;96.30;;;;;;5013206;28;20538;-75
2022/10/26 15:58:41;;;;;;;5.53;1.93;;;14.90;96.30;;;;;;5012903;28;20169;-75
2022/10/26 16:01:06;;;;;;;4.70;1.70;;;14.80;96.30;;;;;;5013248;28;20428;-75
2022/10/26 16:03:32;;;;;;;3.43;1.63;;;14.70;96.30;;;;;;5013421;28;20200;-75
2022/10/26 16:05:59;;;;;;;1.60;1.10;;;14.70;96.30;;;;;;5013459;28;20174;-75
2022/10/26 16:08:28;;;;;;;3.60;1.33;;;14.60;96.30;;;;;;5012606;28;20173;-75
2022/10/26 16:10:54;;;;;;;4.80;1.30;;;14.50;96.30;;;;;;5013008;28;20455;-75
2022/10/26 16:13:19;;;;;;;3.43;1.60;;;14.60;96.30;;;;;;4995602;28;20411;-75
2022/10/26 16:15:45;;;;;;;3.07;1.50;;;14.50;96.30;;;;;;5015233;28;20180;-75
2022/10/26 16:18:10;;;;;;;4.87;2.60;;;14.50;96.30;;;;;;5018084;28;20252;-75
2022/10/26 16:20:36;;;;;;;3.10;1.80;;;;;;;;;;5013457;28;20200;-74
2022/10/26 16:23:07;;;;;;;5.47;2.07;;;14.20;96.30;;;;;;5015199;28;20251;-77
2022/10/26 16:25:40;;;;;;;2.03;1.70;;;14.10;96.30;;;;;;4997043;28;20205;-76
2022/10/26 16:28:05;;;;;;;4.20;1.90;;;13.90;96.30;;;;;;5013356;28;20896;-76
2022/10/26 17:39:15;;;;;;;6.13;3.70;;;13.50;96.30;;;;;;5030120;23;20686;-77
2022/10/26 18:28:16;;;;;;;11.40;4.10;;;;;;;;;;5543189;23;20442;31
2022/10/26 18:30:42;;;;;;;30.57;20.37;;;;;;;;;;4976101;28;20826;-76
2022/10/26 18:33:07;;;;;;;21.33;13.43;;;12.60;96.30;;;;;;4991742;28;20240;-77
2022/10/26 18:35:32;;;;;;;20.10;14.23;;;12.60;96.30;;;;;;4993463;28;20174;-76
2022/10/26 18:37:58;;;;;;;6.33;3.50;;;;;;;;;;4991993;28;20832;-76
2022/10/26 18:40:24;;;;;;;4.27;2.83;;;12.70;96.30;;;;;;4992071;28;20197;-76
2022/10/26 18:42:50;;;;;;;7.53;4.30;;;;;;;;;;4993136;28;20495;-76
2022/10/26 18:45:15;;;;;;;8.80;3.80;;;12.70;96.30;;;;;;4993516;28;20174;-76
2022/10/26 18:47:41;;;;;;;5.63;3.00;;;12.80;96.30;;;;;;4993045;28;20604;-76
2022/10/26 18:50:07;;;;;;;11.60;3.60;;;12.80;96.30;;;;;;4993213;28;20170;-76
2022/10/26 18:52:32;;;;;;;5.03;3.17;;;12.70;96.30;;;;;;4993487;28;20552;-76
2022/10/26 18:54:58;;;;;;;4.40;2.70;;;12.70;96.30;;;;;;4993010;28;20304;-76
2022/10/26 18:57:25;;;;;;;13.37;4.50;;;;;;;;;;4993194;28;20617;-76
2022/10/26 18:59:51;;;;;;;5.20;3.10;;;12.80;96.30;;;;;;4992817;28;20165;-76
2022/10/26 19:02:17;;;;;;;7.07;2.87;;;12.80;96.30;;;;;;4991319;28;20468;-76
2022/10/26 19:04:43;;;;;;;6.67;2.70;;;;;;;;;;4991608;28;20425;-76
2022/10/26 19:07:08;;;;;;;3.87;2.47;;;12.80;96.30;;;;;;4992736;28;20604;-76
2022/10/26 19:09:34;;;;;;;7.90;2.73;;;12.90;96.30;;;;;;4990385;28;20733;-77
2022/10/26 19:11:59;;;;;;;4.87;2.53;;;12.90;96.30;;;;;;4981669;28;20197;-76
2022/10/26 19:14:25;;;;;;;4.20;2.57;;;12.90;96.30;;;;;;4992960;28;20182;-76
2022/10/26 19:16:51;;;;;;;7.20;2.47;;;13.00;96.30;;;;;;4980575;28;20183;-77
2022/10/26 19:19:18;;;;;;;2.60;2.40;;;12.90;96.30;;;;;;4972159;28;20185;-77
2022/10/26 19:21:48;;;;;;;9.77;2.97;;;12.80;96.30;;;;;;4972743;28;21054;-76
2022/10/26 19:24:17;;;;;;;4.17;2.30;;;12.80;96.30;;;;;;4973011;28;20432;-75
2022/10/26 19:26:44;;;;;;;8.80;2.80;;;12.80;96.30;;;;;;4981825;28;20897;-76
2022/10/26 19:29:13;;;;;;;2.23;1.97;;;12.80;96.30;;;;;;4989834;28;20441;-76
2022/10/26 19:31:39;;;;;;;8.07;2.77;;;12.70;96.30;;;;;;5016486;28;20525;-77
2022/10/26 19:34:04;;;;;;;9.70;4.40;;;12.70;96.30;;;;;;5030210;28;20565;-77
2022/10/26 19:36:30;;;;;;;3.90;2.23;;;12.70;96.30;;;;;;5033331;28;20178;-76
2022/10/26 19:38:56;;;;;;;4.23;2.50;;;12.70;96.30;;;;;;5032762;28;20181;-77
2022/10/26 19:41:22;;;;;;;7.00;2.87;;;12.60;96.30;;;;;;5033212;28;20192;-76
2022/10/26 19:43:49;;;;;;;6.63;2.30;;;12.60;96.30;;;;;;5032330;28;20550;-76
2022/10/26 19:46:17;;;;;;;12.77;2.83;;;12.70;96.30;;;;;;5015739;28;20927;-75
2022/10/26 19:48:51;;;;;;;8.13;3.40;;;12.80;96.30;;;;;;5033127;28;20903;-76
2022/10/26 19:51:17;;;;;;;3.33;2.60;;;12.90;96.30;;;;;;5033290;28;20454;-76
2022/10/26 19:53:42;;;;;;;11.27;3.90;;;12.80;96.30;;;;;;5033340;28;20446;-76
2022/10/26 19:56:12;;;;;;;6.90;2.47;;;12.90;96.30;;;;;;5033304;28;20664;-76
2022/10/26 19:58:38;;;;;;;6.17;2.97;;;12.90;96.30;;;;;;5014477;28;20640;-76
2022/10/26 20:01:04;;;;;;;7.13;2.60;;;12.90;96.30;;;;;;5024063;28;20506;-76
2022/10/26 20:03:30;;;;;;;6.83;3.37;;;12.90;96.30;;;;;;5012489;28;21098;-76
2022/10/26 20:06:00;;;;;;;5.57;2.23;;;12.90;96.30;;;;;;5012504;28;20173;-75
2022/10/26 20:08:26;;;;;;;6.87;2.20;;;13.00;96.30;;;;;;5012507;28;20625;-74
2022/10/26 20:10:56;;;;;;;3.80;2.03;;;12.90;96.30;;;;;;5013161;28;20436;-75
2022/10/26 20:13:22;;;;;;;10.77;2.73;;;12.90;96.30;;;;;;5013405;28;20487;-75
2022/10/26 20:15:49;;;;;;;5.73;2.87;;;12.90;96.30;;;;;;5013182;28;20499;-75
2022/10/26 20:18:16;;;;;;;5.60;2.20;;;12.90;96.30;;;;;;5012705;28;21085;-77
2022/10/26 20:20:41;;;;;;;5.20;2.40;;;12.90;96.30;;;;;;5013036;28;20950;-76
2022/10/26 20:23:08;;;;;;;4.33;2.17;;;12.90;96.30;;;;;;5012854;28;20448;-74
2022/10/26 20:25:35;;;;;;;4.47;2.50;;;12.90;96.30;;;;;;5013040;28;20173;-75
2022/10/26 20:28:02;;;;;;;7.00;2.93;;;12.90;96.30;;;;;;5012764;28;20415;-75
2022/10/26 20:30:29;;;;;;;8.33;2.27;;;;;;;;;;5012832;28;20424;-75
2022/10/26 20:32:55;;;;;;;2.83;2.07;;;12.80;96.30;;;;;;5012888;28;20407;-75